createdAt,value
2023-02-27T00:00:41.929Z,50.60
2023-02-27T00:01:42.924Z,51.72
2023-02-27T00:02:42.004Z,62.97
2023-02-27T00:03:41.945Z,47.35
2023-02-27T00:04:41.897Z,50.40
2023-02-27T00:05:41.892Z,52.31
2023-02-27T00:06:41.883Z,54.92
2023-02-27T00:07:41.897Z,62.78
2023-02-27T00:08:41.895Z,50.15
2023-02-27T00:09:41.868Z,53.90
2023-02-27T00:10:41.852Z,51.04
2023-02-27T00:11:41.822Z,48.61
2023-02-27T00:12:41.840Z,51.16
2023-02-27T00:13:41.815Z,52.60
2023-02-27T00:14:41.813Z,54.51
2023-02-27T00:15:41.915Z,50.57
2023-02-27T00:16:41.793Z,55.06
2023-02-27T00:17:41.770Z,59.05
2023-02-27T00:18:41.795Z,53.61
2023-02-27T00:19:41.789Z,46.69
2023-02-27T00:20:41.737Z,46.18
2023-02-27T00:21:41.769Z,48.56
2023-02-27T00:22:41.819Z,48.14
2023-02-27T00:23:41.717Z,49.10
2023-02-27T00:24:41.738Z,47.97
2023-02-27T00:25:41.712Z,47.88
2023-02-27T00:26:41.694Z,48.07
2023-02-27T00:27:41.709Z,49.23
2023-02-27T00:28:41.678Z,59.39
2023-02-27T00:29:41.659Z,57.64
2023-02-27T00:30:41.683Z,53.25
2023-02-27T00:31:41.668Z,54.38
2023-02-27T00:32:41.642Z,53.46
2023-02-27T00:33:41.651Z,62.95
2023-02-27T00:34:41.607Z,45.71
2023-02-27T00:35:41.605Z,48.80
2023-02-27T00:36:41.588Z,49.39
2023-02-27T00:37:41.593Z,49.70
2023-02-27T00:38:41.593Z,54.39
2023-02-27T00:39:41.562Z,49.62
2023-02-27T00:40:41.567Z,61.28
2023-02-27T00:41:41.550Z,56.44
2023-02-27T00:42:41.568Z,50.01
2023-02-27T00:43:41.538Z,56.55
2023-02-27T00:44:41.528Z,52.59
2023-02-27T00:45:41.518Z,64.02
2023-02-27T00:46:41.543Z,54.06
2023-02-27T00:47:41.509Z,50.16
2023-02-27T00:48:41.493Z,50.50
2023-02-27T00:49:41.504Z,48.22
2023-02-27T00:50:41.465Z,48.88
2023-02-27T00:51:41.457Z,48.30
2023-02-27T00:52:41.438Z,50.51
2023-02-27T00:53:41.434Z,51.89
2023-02-27T00:54:41.437Z,49.70
2023-02-27T00:55:41.449Z,50.86
2023-02-27T00:56:41.412Z,49.82
2023-02-27T00:57:41.439Z,48.52
2023-02-27T00:58:41.391Z,48.84
2023-02-27T00:59:41.399Z,51.11
2023-02-27T01:00:41.408Z,48.98
2023-02-27T01:01:41.358Z,54.26
2023-02-27T01:02:41.470Z,48.42
2023-02-27T01:03:41.349Z,48.70
2023-02-27T01:04:41.359Z,50.83
2023-02-27T01:05:41.341Z,53.09
2023-02-27T01:06:41.312Z,56.05
2023-02-27T01:07:41.322Z,47.22
2023-02-27T01:08:41.285Z,49.04
2023-02-27T01:09:41.286Z,48.07
2023-02-27T01:10:41.280Z,55.25
2023-02-27T01:11:41.276Z,58.45
2023-02-27T01:12:41.323Z,50.57
2023-02-27T01:13:41.246Z,53.19
2023-02-27T01:14:41.244Z,58.14
2023-02-27T01:15:41.227Z,48.08
2023-02-27T01:16:41.217Z,47.03
2023-02-27T01:17:41.211Z,47.63
2023-02-27T01:18:41.223Z,46.16
2023-02-27T01:19:41.190Z,52.61
2023-02-27T01:20:41.175Z,67.59
2023-02-27T01:21:41.177Z,57.68
2023-02-27T01:22:41.162Z,53.74
2023-02-27T01:23:41.175Z,52.91
2023-02-27T01:24:41.203Z,46.45
2023-02-27T01:25:41.150Z,46.24
2023-02-27T01:26:41.130Z,54.44
2023-02-27T01:27:41.114Z,65.13
2023-02-27T01:28:41.101Z,56.86
2023-02-27T01:29:41.119Z,52.58
2023-02-27T01:30:41.115Z,54.81
2023-02-27T01:31:41.131Z,49.92
2023-02-27T01:32:41.149Z,47.05
2023-02-27T01:33:41.052Z,61.63
2023-02-27T01:34:41.069Z,65.46
2023-02-27T01:35:41.049Z,47.32
2023-02-27T01:36:41.036Z,58.20
2023-02-27T01:37:41.003Z,58.67
2023-02-27T01:38:41.033Z,53.77
2023-02-27T01:39:41.004Z,53.80
2023-02-27T01:40:41.005Z,52.94
2023-02-27T01:41:40.984Z,55.65
2023-02-27T01:42:40.969Z,50.45
2023-02-27T01:43:40.972Z,50.75
2023-02-27T01:44:40.945Z,59.31
2023-02-27T01:45:40.945Z,59.10
2023-02-27T01:46:40.938Z,56.87
2023-02-27T01:47:40.921Z,51.80
2023-02-27T01:48:40.932Z,53.67
2023-02-27T01:49:40.903Z,54.80
2023-02-27T01:50:40.889Z,63.56
2023-02-27T01:51:40.865Z,46.84
2023-02-27T01:52:40.862Z,50.15
2023-02-27T01:53:40.876Z,56.98
2023-02-27T01:54:40.860Z,60.88
2023-02-27T01:55:40.841Z,53.37
2023-02-27T01:56:40.843Z,58.23
2023-02-27T01:57:40.852Z,59.95
2023-02-27T01:58:41.830Z,62.88
2023-02-27T01:59:40.810Z,60.60
2023-02-27T02:00:40.811Z,55.42
2023-02-27T02:01:40.797Z,52.04
2023-02-27T02:02:40.789Z,53.80
2023-02-27T02:03:40.767Z,54.35
2023-02-27T02:04:40.750Z,59.86
2023-02-27T02:05:40.745Z,51.32
2023-02-27T02:06:40.750Z,49.12
2023-02-27T02:07:40.748Z,47.27
2023-02-27T02:08:40.727Z,57.38
2023-02-27T02:09:40.711Z,55.67
2023-02-27T02:10:40.699Z,57.54
2023-02-27T02:11:40.694Z,53.60
2023-02-27T02:12:40.700Z,59.78
2023-02-27T02:13:40.687Z,64.61
2023-02-27T02:14:40.659Z,51.24
2023-02-27T02:15:40.654Z,53.78
2023-02-27T02:16:40.734Z,51.66
2023-02-27T02:17:40.664Z,52.53
2023-02-27T02:18:40.626Z,53.86
2023-02-27T02:19:40.620Z,55.90
2023-02-27T02:20:40.614Z,55.98
2023-02-27T02:21:40.600Z,48.06
2023-02-27T02:22:40.609Z,55.96
2023-02-27T02:23:40.585Z,56.06
2023-02-27T02:24:40.558Z,49.12
2023-02-27T02:25:40.554Z,49.17
2023-02-27T02:26:40.555Z,54.28
2023-02-27T02:27:40.563Z,56.32
2023-02-27T02:28:40.543Z,58.25
2023-02-27T02:29:40.541Z,61.48
2023-02-27T02:30:40.600Z,64.80
2023-02-27T02:31:40.617Z,53.77
2023-02-27T02:32:40.516Z,57.84
2023-02-27T02:33:40.494Z,49.37
2023-02-27T02:34:40.478Z,54.98
2023-02-27T02:35:40.468Z,59.73
2023-02-27T02:36:40.467Z,56.06
2023-02-27T02:37:40.459Z,54.97
2023-02-27T02:38:40.429Z,66.40
2023-02-27T02:39:40.436Z,50.71
2023-02-27T02:40:40.438Z,48.33
2023-02-27T02:41:40.434Z,50.98
2023-02-27T02:42:40.398Z,51.97
2023-02-27T02:43:40.395Z,53.35
2023-02-27T02:44:40.384Z,56.99
2023-02-27T02:45:40.396Z,60.98
2023-02-27T02:46:40.367Z,62.65
2023-02-27T02:47:40.360Z,51.02
2023-02-27T02:48:40.354Z,50.99
2023-02-27T02:49:40.328Z,49.36
2023-02-27T02:50:40.331Z,60.37
2023-02-27T02:51:40.329Z,70.14
2023-02-27T02:52:40.318Z,57.55
2023-02-27T02:53:40.291Z,55.63
2023-02-27T02:54:40.283Z,57.84
2023-02-27T02:55:40.276Z,51.55
2023-02-27T02:56:40.258Z,56.98
2023-02-27T02:57:40.284Z,54.38
2023-02-27T02:58:40.274Z,56.89
2023-02-27T02:59:40.238Z,57.21
2023-02-27T03:00:40.229Z,57.20
2023-02-27T03:01:40.234Z,48.36
2023-02-27T03:02:40.222Z,48.46
2023-02-27T03:03:40.212Z,51.56
2023-02-27T03:04:40.221Z,49.12
2023-02-27T03:05:40.185Z,56.78
2023-02-27T03:06:40.194Z,52.21
2023-02-27T03:07:40.229Z,57.36
2023-02-27T03:08:40.165Z,50.04
2023-02-27T03:09:40.153Z,56.09
2023-02-27T03:10:40.154Z,57.64
2023-02-27T03:11:40.121Z,56.83
2023-02-27T03:12:40.127Z,54.33
2023-02-27T03:13:40.118Z,57.01
2023-02-27T03:14:40.120Z,57.07
2023-02-27T03:15:40.145Z,57.48
2023-02-27T03:16:40.077Z,55.13
2023-02-27T03:17:40.072Z,52.17
2023-02-27T03:18:40.061Z,53.82
2023-02-27T03:19:40.081Z,53.68
2023-02-27T03:20:40.053Z,57.30
2023-02-27T03:21:40.035Z,54.90
2023-02-27T03:22:40.057Z,54.17
2023-02-27T03:23:40.019Z,54.73
2023-02-27T03:24:40.019Z,57.17
2023-02-27T03:25:39.993Z,71.02
2023-02-27T03:26:39.992Z,54.02
2023-02-27T03:27:39.991Z,50.65
2023-02-27T03:28:39.964Z,53.93
2023-02-27T03:29:39.976Z,56.27
2023-02-27T03:30:39.970Z,51.96
2023-02-27T03:31:39.996Z,57.03
2023-02-27T03:32:39.918Z,54.44
2023-02-27T03:33:39.917Z,52.85
2023-02-27T03:34:39.920Z,57.16
2023-02-27T03:35:39.902Z,54.80
2023-02-27T03:36:39.884Z,59.14
2023-02-27T03:37:39.881Z,55.10
2023-02-27T03:38:39.872Z,54.91
2023-02-27T03:39:39.889Z,57.35
2023-02-27T03:40:39.845Z,57.56
2023-02-27T03:41:39.845Z,50.75
2023-02-27T03:42:39.839Z,53.17
2023-02-27T03:43:39.843Z,53.27
2023-02-27T03:44:39.828Z,57.25
2023-02-27T03:45:39.821Z,64.97
2023-02-27T03:46:39.844Z,59.30
2023-02-27T03:47:39.810Z,57.43
2023-02-27T03:48:39.795Z,54.95
2023-02-27T03:49:39.774Z,53.45
2023-02-27T03:50:39.764Z,54.18
2023-02-27T03:51:39.760Z,56.25
2023-02-27T03:52:39.750Z,55.50
2023-02-27T03:53:39.749Z,58.45
2023-02-27T03:54:39.721Z,60.19
2023-02-27T03:55:39.716Z,58.49
2023-02-27T03:56:39.709Z,55.96
2023-02-27T03:57:39.701Z,59.92
2023-02-27T03:58:39.712Z,66.91
2023-02-27T03:59:39.677Z,58.48
2023-02-27T04:00:39.674Z,57.66
2023-02-27T04:01:39.676Z,59.14
2023-02-27T04:02:39.648Z,61.15
2023-02-27T04:03:39.662Z,55.49
2023-02-27T04:04:39.672Z,57.20
2023-02-27T04:05:46.298Z,60.44
2023-02-27T04:06:39.644Z,57.72
2023-02-27T04:07:39.637Z,57.33
2023-02-27T04:08:39.603Z,60.21
2023-02-27T04:09:39.595Z,57.35
2023-02-27T04:10:39.590Z,56.92
2023-02-27T04:11:39.584Z,58.69
2023-02-27T04:12:39.577Z,57.30
2023-02-27T04:13:39.545Z,60.05
2023-02-27T04:14:39.552Z,65.05
2023-02-27T04:15:39.548Z,60.65
2023-02-27T04:16:39.544Z,59.27
2023-02-27T04:17:39.505Z,58.19
2023-02-27T04:18:39.532Z,59.42
2023-02-27T04:19:39.500Z,60.49
2023-02-27T04:20:39.517Z,60.42
2023-02-27T04:21:39.485Z,58.80
2023-02-27T04:22:39.475Z,58.38
2023-02-27T04:23:39.478Z,59.74
2023-02-27T04:24:39.470Z,58.90
2023-02-27T04:25:39.459Z,66.21
2023-02-27T04:26:39.420Z,59.21
2023-02-27T04:27:39.421Z,58.86
2023-02-27T04:28:39.439Z,59.44
2023-02-27T04:29:39.408Z,59.75
2023-02-27T04:30:39.407Z,67.68
2023-02-27T04:31:39.488Z,64.06
2023-02-27T04:32:39.479Z,59.95
2023-02-27T04:33:39.398Z,58.54
2023-02-27T04:34:39.368Z,61.68
2023-02-27T04:35:39.353Z,65.11
2023-02-27T04:36:39.350Z,61.05
2023-02-27T04:37:40.337Z,60.87
2023-02-27T04:38:39.325Z,67.67
2023-02-27T04:39:39.335Z,67.71
2023-02-27T04:40:39.329Z,59.94
2023-02-27T04:41:39.308Z,59.53
2023-02-27T04:42:39.304Z,60.47
2023-02-27T04:43:39.281Z,60.29
2023-02-27T04:44:39.301Z,61.23
2023-02-27T04:45:39.289Z,62.76
2023-02-27T04:46:39.269Z,60.05
2023-02-27T04:47:39.254Z,60.59
2023-02-27T04:48:39.236Z,67.56
2023-02-27T04:49:39.269Z,60.70
2023-02-27T04:50:39.241Z,63.34
2023-02-27T04:51:39.213Z,58.73
2023-02-27T04:52:39.208Z,59.60
2023-02-27T04:53:39.191Z,59.90
2023-02-27T04:54:39.184Z,59.16
2023-02-27T04:55:39.187Z,58.94
2023-02-27T04:56:39.165Z,58.42
2023-02-27T04:57:39.158Z,59.51
2023-02-27T04:58:39.153Z,58.49
2023-02-27T04:59:39.178Z,59.68
2023-02-27T05:00:39.162Z,58.15
2023-02-27T05:01:39.136Z,57.74
2023-02-27T05:02:39.229Z,63.02
2023-02-27T05:03:39.101Z,65.14
2023-02-27T05:04:39.085Z,59.91
2023-02-27T05:05:39.089Z,58.38
2023-02-27T05:06:39.068Z,59.84
2023-02-27T05:07:39.082Z,65.67
2023-02-27T05:08:39.060Z,58.93
2023-02-27T05:09:39.036Z,60.37
2023-02-27T05:10:39.043Z,60.02
2023-02-27T05:11:39.048Z,60.06
2023-02-27T05:12:39.011Z,60.89
2023-02-27T05:13:39.000Z,58.05
2023-02-27T05:14:38.992Z,60.47
2023-02-27T05:15:39.042Z,60.99
2023-02-27T05:16:39.010Z,58.35
2023-02-27T05:17:39.030Z,61.09
2023-02-27T05:18:38.972Z,58.90
2023-02-27T05:19:38.954Z,60.28
2023-02-27T05:20:38.963Z,61.71
2023-02-27T05:21:38.938Z,60.83
2023-02-27T05:22:38.930Z,59.48
2023-02-27T05:23:38.919Z,59.96
2023-02-27T05:24:38.924Z,58.86
2023-02-27T05:25:38.917Z,59.27
2023-02-27T05:26:38.879Z,61.40
2023-02-27T05:27:38.879Z,62.37
2023-02-27T05:28:38.862Z,57.47
2023-02-27T05:29:38.883Z,60.64
2023-02-27T05:30:38.895Z,58.43
2023-02-27T05:31:38.881Z,67.19
2023-02-27T05:32:38.967Z,59.43
2023-02-27T05:33:38.832Z,61.49
2023-02-27T05:34:38.823Z,59.46
2023-02-27T05:35:38.835Z,60.68
2023-02-27T05:36:38.804Z,62.05
2023-02-27T05:37:38.798Z,60.00
2023-02-27T05:38:38.788Z,62.28
2023-02-27T05:39:38.766Z,62.09
2023-02-27T05:40:38.761Z,62.70
2023-02-27T05:41:38.756Z,60.67
2023-02-27T05:42:38.743Z,60.48
2023-02-27T05:43:38.724Z,60.54
2023-02-27T05:44:38.730Z,61.09
2023-02-27T05:45:38.741Z,62.56
2023-02-27T05:46:38.715Z,60.88
2023-02-27T05:47:38.689Z,60.90
2023-02-27T05:48:38.675Z,61.44
2023-02-27T05:49:38.677Z,60.94
2023-02-27T05:50:38.673Z,61.27
2023-02-27T05:51:38.643Z,61.16
2023-02-27T05:52:38.632Z,61.27
2023-02-27T05:53:38.634Z,62.48
2023-02-27T05:54:38.614Z,63.12
2023-02-27T05:55:38.622Z,63.99
2023-02-27T05:56:38.625Z,61.98
2023-02-27T05:57:38.590Z,61.83
2023-02-27T05:58:38.588Z,62.35
2023-02-27T05:59:38.585Z,61.57
2023-02-27T06:00:38.562Z,68.22
2023-02-27T06:01:38.582Z,63.54
2023-02-27T06:02:38.546Z,63.76
2023-02-27T06:03:38.608Z,63.39
2023-02-27T06:04:38.528Z,70.04
2023-02-27T06:05:38.518Z,60.34
2023-02-27T06:06:38.508Z,61.93
2023-02-27T06:07:38.523Z,61.64
2023-02-27T06:08:38.506Z,63.67
2023-02-27T06:09:38.490Z,62.07
2023-02-27T06:10:38.474Z,62.30
2023-02-27T06:11:38.461Z,62.40
2023-02-27T06:12:38.473Z,62.72
2023-02-27T06:13:40.850Z,63.01
2023-02-27T06:14:38.447Z,63.48
2023-02-27T06:15:39.454Z,62.56
2023-02-27T06:16:38.474Z,63.86
2023-02-27T06:17:38.415Z,62.19
2023-02-27T06:18:38.402Z,63.39
2023-02-27T06:19:38.412Z,60.92
2023-02-27T06:20:38.389Z,62.70
2023-02-27T06:21:38.386Z,62.29
2023-02-27T06:22:38.509Z,63.71
2023-02-27T06:23:38.377Z,63.91
2023-02-27T06:24:38.350Z,62.00
2023-02-27T06:25:38.338Z,63.18
2023-02-27T06:26:38.360Z,63.11
2023-02-27T06:27:38.330Z,62.78
2023-02-27T06:28:38.337Z,63.80
2023-02-27T06:29:38.301Z,62.36
2023-02-27T06:30:38.318Z,62.33
2023-02-27T06:31:38.310Z,62.80
2023-02-27T06:32:38.279Z,62.63
2023-02-27T06:33:38.268Z,63.03
2023-02-27T06:34:38.247Z,61.94
2023-02-27T06:35:38.292Z,65.64
2023-02-27T06:36:38.251Z,63.04
2023-02-27T06:37:38.207Z,62.67
2023-02-27T06:38:38.213Z,64.13
2023-02-27T06:39:38.204Z,61.94
2023-02-27T06:40:38.193Z,62.83
2023-02-27T06:41:38.208Z,63.37
2023-02-27T06:42:38.172Z,63.92
2023-02-27T06:43:38.160Z,63.31
2023-02-27T06:44:38.148Z,64.69
2023-02-27T06:45:38.147Z,62.28
2023-02-27T06:46:38.241Z,64.27
2023-02-27T06:47:38.145Z,62.79
2023-02-27T06:48:38.120Z,63.84
2023-02-27T06:49:38.096Z,61.18
2023-02-27T06:50:38.096Z,63.24
2023-02-27T06:51:38.108Z,67.45
2023-02-27T06:52:38.094Z,63.70
2023-02-27T06:53:38.074Z,63.37
2023-02-27T06:54:38.065Z,61.17
2023-02-27T06:55:38.062Z,66.54
2023-02-27T06:56:38.056Z,61.18
2023-02-27T06:57:38.096Z,62.55
2023-02-27T06:58:38.025Z,64.54
2023-02-27T06:59:38.019Z,61.83
2023-02-27T07:00:38.046Z,64.34
2023-02-27T07:01:38.095Z,66.83
2023-02-27T07:02:38.019Z,66.49
2023-02-27T07:03:37.988Z,62.25
2023-02-27T07:04:38.031Z,61.65
2023-02-27T07:05:37.967Z,62.33
2023-02-27T07:07:34.420Z,67.27
2023-02-27T07:07:39.207Z,62.29
2023-02-27T07:08:38.010Z,61.32
2023-02-27T07:09:39.085Z,60.86
2023-02-27T07:10:37.932Z,60.82
2023-02-27T07:11:37.901Z,62.70
2023-02-27T07:12:37.881Z,62.51
2023-02-27T07:13:37.883Z,60.03
2023-02-27T07:14:37.878Z,61.30
2023-02-27T07:15:37.908Z,62.37
2023-02-27T07:16:37.857Z,61.01
2023-02-27T07:17:37.857Z,63.80
2023-02-27T07:18:37.872Z,62.62
2023-02-27T07:19:37.845Z,62.65
2023-02-27T07:20:37.838Z,61.39
2023-02-27T07:21:37.809Z,64.17
2023-02-27T07:22:37.831Z,60.63
2023-02-27T07:23:37.788Z,59.96
2023-02-27T07:24:37.789Z,61.20
2023-02-27T07:25:37.776Z,61.73
2023-02-27T07:26:37.765Z,61.98
2023-02-27T07:27:37.781Z,61.16
2023-02-27T07:28:37.827Z,65.01
2023-02-27T07:29:37.731Z,63.83
2023-02-27T07:30:37.731Z,62.41
2023-02-27T07:31:37.770Z,60.91
2023-02-27T07:32:37.725Z,61.53
2023-02-27T07:33:37.717Z,61.22
2023-02-27T07:34:37.692Z,61.47
2023-02-27T07:35:37.728Z,60.88
2023-02-27T07:36:37.672Z,61.13
2023-02-27T07:37:37.684Z,62.19
2023-02-27T07:38:37.655Z,61.46
2023-02-27T07:39:37.648Z,62.02
2023-02-27T07:40:37.631Z,62.20
2023-02-27T07:41:37.633Z,60.49
2023-02-27T07:42:37.628Z,62.32
2023-02-27T07:43:37.617Z,60.98
2023-02-27T07:44:37.620Z,61.99
2023-02-27T07:45:37.587Z,61.20
2023-02-27T07:46:37.654Z,62.22
2023-02-27T07:47:37.560Z,60.67
2023-02-27T07:48:37.565Z,60.48
2023-02-27T07:49:37.569Z,62.04
2023-02-27T07:50:37.548Z,61.86
2023-02-27T07:51:37.543Z,69.21
2023-02-27T07:52:37.525Z,61.26
2023-02-27T07:53:37.517Z,62.29
2023-02-27T07:54:37.582Z,61.40
2023-02-27T07:55:37.507Z,61.90
2023-02-27T07:56:37.514Z,62.59
2023-02-27T07:57:37.488Z,66.78
2023-02-27T07:58:37.474Z,60.65
2023-02-27T07:59:37.490Z,61.25
2023-02-27T08:00:37.478Z,60.84
2023-02-27T08:01:37.447Z,61.10
2023-02-27T08:02:37.454Z,59.67
2023-02-27T08:03:37.428Z,60.99
2023-02-27T08:04:37.447Z,60.37
2023-02-27T08:05:37.464Z,60.61
2023-02-27T08:06:37.419Z,60.97
2023-02-27T08:07:37.384Z,60.25
2023-02-27T08:08:37.397Z,61.75
2023-02-27T08:09:37.362Z,59.71
2023-02-27T08:10:37.370Z,61.57
2023-02-27T08:11:37.372Z,67.60
2023-02-27T08:12:37.351Z,62.03
2023-02-27T08:14:03.487Z,60.32
2023-02-27T08:14:39.318Z,60.47
2023-02-27T08:15:37.335Z,59.79
2023-02-27T08:16:37.471Z,62.97
2023-02-27T08:17:37.326Z,61.63
2023-02-27T08:18:37.288Z,62.15
2023-02-27T08:19:37.270Z,66.13
2023-02-27T08:20:37.270Z,61.79
2023-02-27T08:21:37.299Z,61.30
2023-02-27T08:22:37.249Z,62.24
2023-02-27T08:23:37.248Z,60.93
2023-02-27T08:24:37.239Z,60.56
2023-02-27T08:25:37.236Z,61.82
2023-02-27T08:26:37.193Z,61.01
2023-02-27T08:27:37.195Z,58.67
2023-02-27T08:28:37.189Z,60.61
2023-02-27T08:29:37.206Z,61.69
2023-02-27T08:30:37.166Z,60.83
2023-02-27T08:31:37.203Z,60.96
2023-02-27T08:32:37.147Z,61.20
2023-02-27T08:33:37.143Z,63.72
2023-02-27T08:34:37.157Z,60.49
2023-02-27T08:35:37.132Z,61.24
2023-02-27T08:36:37.109Z,60.39
2023-02-27T08:37:37.084Z,62.38
2023-02-27T08:38:37.099Z,60.77
2023-02-27T08:39:37.078Z,59.47
2023-02-27T08:40:37.090Z,60.51
2023-02-27T08:41:37.082Z,60.32
2023-02-27T08:42:37.061Z,60.95
2023-02-27T08:43:37.033Z,63.46
2023-02-27T08:44:37.033Z,61.69
2023-02-27T08:45:37.053Z,60.53
2023-02-27T08:46:37.013Z,62.05
2023-02-27T08:47:36.998Z,61.64
2023-02-27T08:48:36.977Z,60.28
2023-02-27T08:49:36.974Z,62.92
2023-02-27T08:50:36.963Z,66.44
2023-02-27T08:51:36.968Z,60.04
2023-02-27T08:52:36.950Z,59.79
2023-02-27T08:53:36.934Z,60.26
2023-02-27T08:54:36.962Z,59.57
2023-02-27T08:55:36.910Z,60.24
2023-02-27T08:56:36.939Z,60.38
2023-02-27T08:57:36.899Z,60.75
2023-02-27T08:58:36.918Z,60.69
2023-02-27T08:59:36.925Z,60.59
2023-02-27T09:00:36.877Z,59.80
2023-02-27T09:01:36.884Z,58.60
2023-02-27T09:02:36.914Z,59.15
2023-02-27T09:03:36.832Z,59.64
2023-02-27T09:04:36.840Z,61.68
2023-02-27T09:05:36.821Z,59.71
2023-02-27T09:06:36.831Z,59.17
2023-02-27T09:07:36.813Z,64.45
2023-02-27T09:08:36.784Z,65.75
2023-02-27T09:09:36.798Z,60.45
2023-02-27T09:10:36.799Z,62.70
2023-02-27T09:11:38.663Z,61.64
2023-02-27T09:12:36.745Z,60.21
2023-02-27T09:13:36.754Z,59.81
2023-02-27T09:14:36.768Z,58.37
2023-02-27T09:15:36.734Z,60.40
2023-02-27T09:16:36.786Z,62.66
2023-02-27T09:17:36.688Z,60.36
2023-02-27T09:18:36.688Z,59.80
2023-02-27T09:19:36.703Z,61.44
2023-02-27T09:20:36.683Z,60.72
2023-02-27T09:21:36.705Z,60.54
2023-02-27T09:22:36.655Z,62.34
2023-02-27T09:23:36.669Z,61.88
2023-02-27T09:24:36.629Z,63.72
2023-02-27T09:25:36.628Z,61.09
2023-02-27T09:26:45.642Z,60.28
2023-02-27T09:27:38.613Z,59.46
2023-02-27T09:28:36.599Z,59.01
2023-02-27T09:29:36.618Z,59.87
2023-02-27T09:30:36.589Z,58.76
2023-02-27T09:31:36.610Z,58.95
2023-02-27T09:32:36.619Z,60.80
2023-02-27T09:33:36.545Z,59.66
2023-02-27T09:34:36.600Z,57.33
2023-02-27T09:35:36.561Z,58.78
2023-02-27T09:36:36.527Z,61.53
2023-02-27T09:37:36.517Z,61.33
2023-02-27T09:38:36.506Z,64.88
2023-02-27T09:39:36.510Z,58.25
2023-02-27T09:40:36.497Z,59.37
2023-02-27T09:41:36.487Z,61.21
2023-02-27T09:42:36.504Z,61.49
2023-02-27T09:43:36.506Z,61.04
2023-02-27T09:44:45.720Z,59.66
2023-02-27T09:45:37.508Z,62.20
2023-02-27T09:46:36.437Z,61.10
2023-02-27T09:47:36.446Z,59.89
2023-02-27T09:48:36.411Z,59.27
2023-02-27T09:49:36.410Z,61.43
2023-02-27T09:50:36.400Z,60.27
2023-02-27T09:51:36.390Z,58.30
2023-02-27T09:52:36.389Z,57.79
2023-02-27T09:53:36.363Z,58.27
2023-02-27T09:54:36.346Z,60.98
2023-02-27T09:55:36.343Z,60.17
2023-02-27T09:56:36.346Z,60.22
2023-02-27T09:57:36.309Z,62.09
2023-02-27T09:58:36.322Z,60.96
2023-02-27T09:59:36.308Z,59.77
2023-02-27T10:00:36.306Z,61.67
2023-02-27T10:01:36.283Z,62.36
2023-02-27T10:02:36.322Z,62.31
2023-02-27T10:03:36.280Z,59.89
2023-02-27T10:04:36.297Z,59.97
2023-02-27T10:05:37.245Z,62.48
2023-02-27T10:06:36.241Z,62.08
2023-02-27T10:08:08.135Z,61.23
2023-02-27T10:08:36.238Z,60.42
2023-02-27T10:09:36.266Z,60.94
2023-02-27T10:10:36.215Z,60.43
2023-02-27T10:11:36.195Z,59.48
2023-02-27T10:12:36.186Z,58.85
2023-02-27T10:13:36.186Z,59.61
2023-02-27T10:14:36.164Z,60.25
2023-02-27T10:15:36.182Z,58.82
2023-02-27T10:16:36.203Z,63.45
2023-02-27T10:17:36.174Z,61.57
2023-02-27T10:18:36.143Z,60.89
2023-02-27T10:19:36.139Z,60.78
2023-02-27T10:20:36.111Z,61.19
2023-02-27T10:21:36.109Z,60.00
2023-02-27T10:22:36.106Z,58.75
2023-02-27T10:23:36.089Z,59.97
2023-02-27T10:24:36.093Z,59.85
2023-02-27T10:25:36.081Z,58.84
2023-02-27T10:26:36.056Z,65.10
2023-02-27T10:27:36.059Z,60.82
2023-02-27T10:28:36.034Z,59.84
2023-02-27T10:29:36.042Z,60.36
2023-02-27T10:30:36.213Z,59.95
2023-02-27T10:31:36.139Z,62.50
2023-02-27T10:32:36.009Z,64.50
2023-02-27T10:33:35.991Z,60.82
2023-02-27T10:34:35.968Z,61.02
2023-02-27T10:35:36.066Z,60.99
2023-02-27T10:36:35.997Z,61.52
2023-02-27T10:37:35.969Z,60.02
2023-02-27T10:38:35.967Z,62.32
2023-02-27T10:39:35.967Z,60.85
2023-02-27T10:40:35.945Z,60.72
2023-02-27T10:41:35.924Z,59.70
2023-02-27T10:42:35.927Z,60.32
2023-02-27T10:43:35.899Z,60.27
2023-02-27T10:44:35.875Z,60.97
2023-02-27T10:45:37.894Z,61.10
2023-02-27T10:46:35.960Z,60.02
2023-02-27T10:47:35.862Z,68.70
2023-02-27T10:48:35.857Z,61.45
2023-02-27T10:49:35.841Z,60.94
2023-02-27T10:50:35.831Z,60.74
2023-02-27T10:51:35.808Z,63.50
2023-02-27T10:52:35.805Z,60.67
2023-02-27T10:53:35.824Z,61.41
2023-02-27T10:54:35.780Z,59.71
2023-02-27T10:55:35.790Z,59.35
2023-02-27T10:56:35.793Z,60.23
2023-02-27T10:57:35.753Z,60.70
2023-02-27T10:58:35.748Z,60.82
2023-02-27T10:59:36.736Z,60.93
2023-02-27T11:00:35.770Z,60.70
2023-02-27T11:01:35.765Z,64.77
2023-02-27T11:02:35.726Z,59.68
2023-02-27T11:03:35.728Z,60.05
2023-02-27T11:04:35.776Z,60.38
2023-02-27T11:05:35.677Z,59.95
2023-02-27T11:06:35.668Z,60.83
2023-02-27T11:07:35.665Z,59.08
2023-02-27T11:08:35.660Z,60.07
2023-02-27T11:09:35.662Z,60.31
2023-02-27T11:10:35.634Z,58.91
2023-02-27T11:11:35.603Z,59.63
2023-02-27T11:12:35.624Z,60.45
2023-02-27T11:13:35.594Z,61.20
2023-02-27T11:14:35.612Z,61.38
2023-02-27T11:15:35.647Z,60.09
2023-02-27T11:16:35.564Z,60.13
2023-02-27T11:17:35.580Z,59.31
2023-02-27T11:18:35.575Z,60.50
2023-02-27T11:19:35.603Z,60.11
2023-02-27T11:20:35.543Z,60.94
2023-02-27T11:21:35.545Z,60.64
2023-02-27T11:22:35.536Z,61.51
2023-02-27T11:23:35.518Z,61.55
2023-02-27T11:24:35.503Z,60.96
2023-02-27T11:25:35.479Z,61.31
2023-02-27T11:26:35.546Z,59.64
2023-02-27T11:27:35.477Z,60.88
2023-02-27T11:28:35.459Z,59.86
2023-02-27T11:29:35.445Z,59.27
2023-02-27T11:30:35.433Z,60.76
2023-02-27T11:31:35.484Z,60.52
2023-02-27T11:32:35.416Z,60.52
2023-02-27T11:33:35.415Z,61.41
2023-02-27T11:34:35.414Z,59.65
2023-02-27T11:35:35.410Z,61.38
2023-02-27T11:36:35.388Z,61.37
2023-02-27T11:37:35.399Z,59.23
2023-02-27T11:38:35.383Z,60.04
2023-02-27T11:39:35.349Z,59.12
2023-02-27T11:40:35.358Z,59.13
2023-02-27T11:41:35.322Z,60.61
2023-02-27T11:42:35.316Z,60.49
2023-02-27T11:43:35.342Z,61.02
2023-02-27T11:44:50.843Z,60.97
2023-02-27T11:46:17.651Z,60.46
2023-02-27T11:46:47.994Z,61.01
2023-02-27T11:47:36.335Z,59.96
2023-02-27T11:48:35.293Z,60.71
2023-02-27T11:49:35.274Z,60.14
2023-02-27T11:50:35.310Z,60.80
2023-02-27T11:51:35.227Z,61.19
2023-02-27T11:52:35.212Z,61.58
2023-02-27T11:53:36.191Z,58.96
2023-02-27T11:54:35.284Z,60.26
2023-02-27T11:55:35.186Z,60.62
2023-02-27T11:56:36.267Z,60.18
2023-02-27T11:57:36.158Z,58.70
2023-02-27T11:58:35.159Z,59.06
2023-02-27T11:59:35.182Z,60.29
2023-02-27T12:00:35.158Z,62.94
2023-02-27T12:01:35.148Z,58.31
2023-02-27T12:02:36.596Z,60.89
2023-02-27T12:03:35.151Z,59.45
2023-02-27T12:04:35.122Z,61.57
2023-02-27T12:05:35.089Z,64.78
2023-02-27T12:06:35.073Z,59.82
2023-02-27T12:07:35.090Z,57.70
2023-02-27T12:08:35.069Z,60.04
2023-02-27T12:09:35.147Z,61.34
2023-02-27T12:10:35.058Z,60.73
2023-02-27T12:11:35.069Z,61.01
2023-02-27T12:12:35.027Z,61.88
2023-02-27T12:13:35.014Z,59.40
2023-02-27T12:14:35.027Z,59.83
2023-02-27T12:15:34.993Z,61.07
2023-02-27T12:16:35.548Z,62.34
2023-02-27T12:17:34.965Z,59.93
2023-02-27T12:18:35.022Z,59.51
2023-02-27T12:19:34.969Z,59.55
2023-02-27T12:20:34.961Z,60.36
2023-02-27T12:21:34.970Z,68.50
2023-02-27T12:22:34.921Z,60.68
2023-02-27T12:23:34.914Z,59.27
2023-02-27T12:24:34.902Z,61.31
2023-02-27T12:25:34.922Z,59.18
2023-02-27T12:26:34.916Z,59.94
2023-02-27T12:27:34.926Z,60.15
2023-02-27T12:28:34.885Z,60.07
2023-02-27T12:29:34.881Z,61.17
2023-02-27T12:30:34.846Z,59.97
2023-02-27T12:31:34.939Z,58.90
2023-02-27T12:32:34.938Z,58.97
2023-02-27T12:33:35.855Z,60.86
2023-02-27T12:34:34.808Z,58.89
2023-02-27T12:35:34.881Z,59.54
2023-02-27T12:36:34.812Z,58.63
2023-02-27T12:37:34.795Z,60.40
2023-02-27T12:38:37.396Z,62.35
2023-02-27T12:39:34.783Z,61.24
2023-02-27T12:40:34.756Z,60.84
2023-02-27T12:41:34.738Z,62.02
2023-02-27T12:42:34.788Z,60.49
2023-02-27T12:43:34.745Z,60.10
2023-02-27T12:44:34.704Z,60.14
2023-02-27T12:45:34.728Z,67.58
2023-02-27T12:46:34.692Z,60.96
2023-02-27T12:47:34.730Z,60.04
2023-02-27T12:48:34.665Z,65.13
2023-02-27T12:49:34.661Z,62.70
2023-02-27T12:50:34.652Z,61.42
2023-02-27T12:54:43.480Z,59.62
2023-02-27T12:55:42.784Z,60.27